createdAt,value
2018-09-30T00:00:15.091Z,6.74
2018-09-30T00:01:15.079Z,6.76
2018-09-30T00:02:15.068Z,6.77
2018-09-30T00:03:15.107Z,6.79
2018-09-30T00:04:15.045Z,6.79
2018-09-30T00:05:15.036Z,6.69
2018-09-30T00:06:15.025Z,6.70
2018-09-30T00:07:15.013Z,6.64
2018-09-30T00:08:15.001Z,6.58
2018-09-30T00:09:15.007Z,6.69
2018-09-30T00:10:14.987Z,6.62
2018-09-30T00:11:14.969Z,6.62
2018-09-30T00:12:14.958Z,6.64
2018-09-30T00:13:14.970Z,6.61
2018-09-30T00:14:14.935Z,6.62
2018-09-30T00:15:14.929Z,6.58
2018-09-30T00:16:14.918Z,6.58
2018-09-30T00:17:14.904Z,6.61
2018-09-30T00:18:14.897Z,6.54
2018-09-30T00:19:14.899Z,6.56
2018-09-30T00:20:14.871Z,6.54
2018-09-30T00:21:14.860Z,6.52
2018-09-30T00:22:14.851Z,6.52
2018-09-30T00:23:14.841Z,6.51
2018-09-30T00:24:14.842Z,6.51
2018-09-30T00:25:14.819Z,6.54
2018-09-30T00:26:14.806Z,6.66
2018-09-30T00:27:14.809Z,6.64
2018-09-30T00:28:14.786Z,6.66
2018-09-30T00:29:14.775Z,6.62
2018-09-30T00:30:14.764Z,6.56
2018-09-30T00:31:14.751Z,6.56
2018-09-30T00:32:14.761Z,6.64
2018-09-30T00:33:14.730Z,6.67
2018-09-30T00:34:14.717Z,6.61
2018-09-30T00:35:14.715Z,6.61
2018-09-30T00:36:14.755Z,6.64
2018-09-30T00:37:14.688Z,6.59
2018-09-30T00:38:14.695Z,6.64
2018-09-30T00:39:14.665Z,6.66
2018-09-30T00:40:14.654Z,6.69
2018-09-30T00:41:14.643Z,6.67
2018-09-30T00:42:14.642Z,6.76
2018-09-30T00:43:14.622Z,6.74
2018-09-30T00:44:14.661Z,6.84
2018-09-30T00:45:14.601Z,6.77
2018-09-30T00:46:14.592Z,6.79
2018-09-30T00:47:14.577Z,6.81
2018-09-30T00:48:14.570Z,6.80
2018-09-30T00:49:14.556Z,6.74
2018-09-30T00:50:14.560Z,6.76
2018-09-30T00:51:14.536Z,6.81
2018-09-30T00:52:14.523Z,6.73
2018-09-30T00:53:14.545Z,6.77
2018-09-30T00:54:14.500Z,6.77
2018-09-30T00:55:14.493Z,6.71
2018-09-30T00:56:14.500Z,6.79
2018-09-30T00:57:14.479Z,6.76
2018-09-30T00:58:14.477Z,6.80
2018-09-30T00:59:14.447Z,6.80
2018-09-30T01:00:14.439Z,6.85
2018-09-30T01:01:14.426Z,6.74
2018-09-30T01:02:14.414Z,6.80
2018-09-30T01:03:14.406Z,6.77
2018-09-30T01:04:14.417Z,6.80
2018-09-30T01:05:14.383Z,6.76
2018-09-30T01:06:14.371Z,6.76
2018-09-30T01:07:14.362Z,6.81
2018-09-30T01:08:14.351Z,6.70
2018-09-30T01:09:14.340Z,6.80
2018-09-30T01:10:14.349Z,6.77
2018-09-30T01:11:14.317Z,6.70
2018-09-30T01:12:14.305Z,6.74
2018-09-30T01:13:14.295Z,6.73
2018-09-30T01:14:14.285Z,6.71
2018-09-30T01:15:14.273Z,6.71
2018-09-30T01:16:14.275Z,6.70
2018-09-30T01:17:14.251Z,6.74
2018-09-30T01:18:14.243Z,6.69
2018-09-30T01:19:14.229Z,6.71
2018-09-30T01:20:14.218Z,6.70
2018-09-30T01:21:14.222Z,6.67
2018-09-30T01:22:14.210Z,6.59
2018-09-30T01:23:14.188Z,6.67
2018-09-30T01:24:14.176Z,6.64
2018-09-30T01:25:14.164Z,6.66
2018-09-30T01:26:14.153Z,6.66
2018-09-30T01:27:14.183Z,6.61
2018-09-30T01:28:14.130Z,6.58
2018-09-30T01:29:14.120Z,6.55
2018-09-30T01:30:14.110Z,6.58
2018-09-30T01:31:14.099Z,6.49
2018-09-30T01:32:14.090Z,6.46
2018-09-30T01:33:14.089Z,6.49
2018-09-30T01:34:14.072Z,6.44
2018-09-30T01:35:14.057Z,6.48
2018-09-30T01:36:14.045Z,6.41
2018-09-30T01:37:14.033Z,6.44
2018-09-30T01:38:14.038Z,6.44
2018-09-30T01:39:14.010Z,6.46
2018-09-30T01:40:14.003Z,6.36
2018-09-30T01:41:13.989Z,6.31
2018-09-30T01:42:13.978Z,6.31
2018-09-30T01:43:13.991Z,6.34
2018-09-30T01:44:13.956Z,6.28
2018-09-30T01:45:13.946Z,6.25
2018-09-30T01:46:13.935Z,6.31
2018-09-30T01:47:13.925Z,6.27
2018-09-30T01:48:13.912Z,6.27
2018-09-30T01:49:13.918Z,6.21
2018-09-30T01:50:13.890Z,6.25
2018-09-30T01:51:13.880Z,6.17
2018-09-30T01:52:13.883Z,6.21
2018-09-30T01:53:13.859Z,6.15
2018-09-30T01:54:13.847Z,6.11
2018-09-30T01:55:13.837Z,6.14
2018-09-30T01:56:13.827Z,6.15
2018-09-30T01:57:13.830Z,6.12
2018-09-30T01:58:13.807Z,6.09
2018-09-30T01:59:13.795Z,6.14
2018-09-30T02:00:13.784Z,6.04
2018-09-30T02:01:13.775Z,6.04
2018-09-30T02:02:13.775Z,6.03
2018-09-30T02:03:13.750Z,6.11
2018-09-30T02:04:13.739Z,6.03
2018-09-30T02:05:13.747Z,6.03
2018-09-30T02:06:13.718Z,5.99
2018-09-30T02:07:13.707Z,5.97
2018-09-30T02:08:13.699Z,6.00
2018-09-30T02:09:13.685Z,6.03
2018-09-30T02:10:13.678Z,5.97
2018-09-30T02:11:13.686Z,5.86
2018-09-30T02:12:13.653Z,5.83
2018-09-30T02:13:13.641Z,5.96
2018-09-30T02:14:13.630Z,5.89
2018-09-30T02:15:13.620Z,5.85
2018-09-30T02:16:13.610Z,5.85
2018-09-30T02:17:13.612Z,5.86
2018-09-30T02:18:13.590Z,5.83
2018-09-30T02:19:13.576Z,5.83
2018-09-30T02:20:13.566Z,5.79
2018-09-30T02:21:13.555Z,5.82
2018-09-30T02:22:13.567Z,5.81
2018-09-30T02:23:13.532Z,5.79
2018-09-30T02:24:13.521Z,5.76
2018-09-30T02:25:14.530Z,5.78
2018-09-30T02:26:13.500Z,5.82
2018-09-30T02:27:13.490Z,5.74
2018-09-30T02:28:13.501Z,5.72
2018-09-30T02:29:13.468Z,5.79
2018-09-30T02:30:13.467Z,5.72
2018-09-30T02:31:13.449Z,5.72
2018-09-30T02:32:13.436Z,5.76
2018-09-30T02:33:13.427Z,5.74
2018-09-30T02:34:13.448Z,5.74
2018-09-30T02:35:13.405Z,5.74
2018-09-30T02:36:13.393Z,5.81
2018-09-30T02:37:13.382Z,5.74
2018-09-30T02:38:13.371Z,5.75
2018-09-30T02:39:13.378Z,5.74
2018-09-30T02:40:13.349Z,5.64
2018-09-30T02:41:13.337Z,5.68
2018-09-30T02:42:13.331Z,5.76
2018-09-30T02:43:13.330Z,5.64
2018-09-30T02:44:13.362Z,5.60
2018-09-30T02:45:13.294Z,5.65
2018-09-30T02:46:13.285Z,5.63
2018-09-30T02:47:13.273Z,5.60
2018-09-30T02:48:13.262Z,5.58
2018-09-30T02:49:13.252Z,5.54
2018-09-30T02:50:13.255Z,5.48
2018-09-30T02:51:13.230Z,5.43
2018-09-30T02:52:13.219Z,5.38
2018-09-30T02:53:13.208Z,5.45
2018-09-30T02:54:13.196Z,5.48
2018-09-30T02:55:13.201Z,5.39
2018-09-30T02:56:13.198Z,5.38
2018-09-30T02:57:13.165Z,5.42
2018-09-30T02:58:13.155Z,5.36
2018-09-30T02:59:13.145Z,5.42
2018-09-30T03:00:13.136Z,5.36
2018-09-30T03:01:13.123Z,5.38
2018-09-30T03:02:13.125Z,5.39
2018-09-30T03:03:13.112Z,5.35
2018-09-30T03:04:13.089Z,5.27
2018-09-30T03:05:13.079Z,5.30
2018-09-30T03:06:13.068Z,5.30
2018-09-30T03:07:13.057Z,5.35
2018-09-30T03:08:13.071Z,5.27
2018-09-30T03:09:13.035Z,5.31
2018-09-30T03:10:13.026Z,5.20
2018-09-30T03:11:13.012Z,5.25
2018-09-30T03:12:13.002Z,5.24
2018-09-30T03:13:12.992Z,5.21
2018-09-30T03:14:12.995Z,5.22
2018-09-30T03:15:12.969Z,5.22
2018-09-30T03:16:12.958Z,5.30
2018-09-30T03:17:12.963Z,5.22
2018-09-30T03:18:12.938Z,5.20
2018-09-30T03:19:12.943Z,5.20
2018-09-30T03:20:12.915Z,5.18
2018-09-30T03:21:12.919Z,5.18
2018-09-30T03:22:12.893Z,5.06
2018-09-30T03:23:12.898Z,5.03
2018-09-30T03:24:12.884Z,5.09
2018-09-30T03:25:12.860Z,5.09
2018-09-30T03:26:12.852Z,5.12
2018-09-30T03:27:12.839Z,5.03
2018-09-30T03:28:12.840Z,5.02
2018-09-30T03:29:12.815Z,5.02
2018-09-30T03:30:12.806Z,5.06
2018-09-30T03:31:12.794Z,5.02
2018-09-30T03:32:12.783Z,5.04
2018-09-30T03:33:12.794Z,5.04
2018-09-30T03:34:12.760Z,5.03
2018-09-30T03:35:12.750Z,5.03
2018-09-30T03:36:12.739Z,5.04
2018-09-30T03:37:12.729Z,5.00
2018-09-30T03:38:12.719Z,4.97
2018-09-30T03:39:12.721Z,4.97
2018-09-30T03:40:12.695Z,4.97
2018-09-30T03:41:12.686Z,4.97
2018-09-30T03:42:12.674Z,4.97
2018-09-30T03:43:12.663Z,5.04
2018-09-30T03:44:12.673Z,4.94
2018-09-30T03:45:12.641Z,5.04
2018-09-30T03:46:12.631Z,4.94
2018-09-30T03:47:12.622Z,4.92
2018-09-30T03:48:12.610Z,4.91
2018-09-30T03:49:12.598Z,4.92
2018-09-30T03:50:12.602Z,4.99
2018-09-30T03:51:12.586Z,4.99
2018-09-30T03:52:12.575Z,4.99
2018-09-30T03:53:12.554Z,4.89
2018-09-30T03:54:12.542Z,4.89
2018-09-30T03:55:12.550Z,4.89
2018-09-30T03:56:12.522Z,4.89
2018-09-30T03:57:12.510Z,4.91
2018-09-30T03:58:12.500Z,4.89
2018-09-30T03:59:12.489Z,4.89
2018-09-30T04:00:12.480Z,4.85
2018-09-30T04:01:12.482Z,4.85
2018-09-30T04:02:12.455Z,4.77
2018-09-30T04:03:12.445Z,4.84
2018-09-30T04:04:12.433Z,4.80
2018-09-30T04:05:12.448Z,4.84
2018-09-30T04:06:12.413Z,4.86
2018-09-30T04:07:12.406Z,4.92
2018-09-30T04:08:12.391Z,4.80
2018-09-30T04:09:12.381Z,4.82
2018-09-30T04:10:12.436Z,4.78
2018-09-30T04:11:12.538Z,4.86
2018-09-30T04:12:12.349Z,4.78
2018-09-30T04:13:12.337Z,4.72
2018-09-30T04:14:12.327Z,4.77
2018-09-30T04:15:12.316Z,4.78
2018-09-30T04:16:12.308Z,4.72
2018-09-30T04:17:12.602Z,4.70
2018-09-30T04:18:12.284Z,4.80
2018-09-30T04:19:12.290Z,4.73
2018-09-30T04:20:12.274Z,4.73
2018-09-30T04:21:12.252Z,4.73
2018-09-30T04:22:12.241Z,4.69
2018-09-30T04:23:12.244Z,4.67
2018-09-30T04:24:12.218Z,4.77
2018-09-30T04:25:12.208Z,4.75
2018-09-30T04:26:12.240Z,4.72
2018-09-30T04:27:12.189Z,4.72
2018-09-30T04:28:12.175Z,4.62
2018-09-30T04:29:12.165Z,4.63
2018-09-30T04:30:12.153Z,4.59
2018-09-30T04:31:12.147Z,4.58
2018-09-30T04:32:12.148Z,4.59
2018-09-30T04:33:12.174Z,4.69
2018-09-30T04:34:12.109Z,4.55
2018-09-30T04:35:12.106Z,4.55
2018-09-30T04:36:12.089Z,4.51
2018-09-30T04:37:12.082Z,4.52
2018-09-30T04:38:12.067Z,4.48
2018-09-30T04:39:12.070Z,4.54
2018-09-30T04:40:12.045Z,4.55
2018-09-30T04:41:12.035Z,4.47
2018-09-30T04:42:12.039Z,4.54
2018-09-30T04:43:12.011Z,4.52
2018-09-30T04:44:12.020Z,4.44
2018-09-30T04:45:11.991Z,4.50
2018-09-30T04:46:11.998Z,4.44
2018-09-30T04:47:11.968Z,4.47
2018-09-30T04:48:11.958Z,4.55
2018-09-30T04:49:11.946Z,4.48
2018-09-30T04:50:11.951Z,4.48
2018-09-30T04:51:11.925Z,4.45
2018-09-30T04:52:11.916Z,4.44
2018-09-30T04:53:11.904Z,4.44
2018-09-30T04:54:11.907Z,4.44
2018-09-30T04:55:11.895Z,4.45
2018-09-30T04:56:11.888Z,4.36
2018-09-30T04:57:11.859Z,4.33
2018-09-30T04:58:11.848Z,4.36
2018-09-30T04:59:11.837Z,4.32
2018-09-30T05:00:11.890Z,4.29
2018-09-30T05:01:11.815Z,4.40
2018-09-30T05:02:11.806Z,4.37
2018-09-30T05:03:11.793Z,4.34
2018-09-30T05:04:11.782Z,4.32
2018-09-30T05:05:11.772Z,4.33
2018-09-30T05:06:11.775Z,4.30
2018-09-30T05:07:11.763Z,4.20
2018-09-30T05:08:11.739Z,4.34
2018-09-30T05:09:11.728Z,4.33
2018-09-30T05:10:11.719Z,4.26
2018-09-30T05:11:11.734Z,4.24
2018-09-30T05:12:11.696Z,4.26
2018-09-30T05:13:11.684Z,4.22
2018-09-30T05:14:11.673Z,4.26
2018-09-30T05:15:11.662Z,4.30
2018-09-30T05:16:11.657Z,4.18
2018-09-30T05:17:11.658Z,4.29
2018-09-30T05:18:11.630Z,4.23
2018-09-30T05:19:11.619Z,4.23
2018-09-30T05:20:11.608Z,4.23
2018-09-30T05:21:11.597Z,4.16
2018-09-30T05:22:11.609Z,4.18
2018-09-30T05:23:11.575Z,4.11
2018-09-30T05:24:11.564Z,4.09
2018-09-30T05:25:11.554Z,4.11
2018-09-30T05:26:11.543Z,4.16
2018-09-30T05:27:11.532Z,4.09
2018-09-30T05:28:11.539Z,4.11
2018-09-30T05:29:11.509Z,4.09
2018-09-30T05:30:11.499Z,4.11
2018-09-30T05:31:11.552Z,4.20
2018-09-30T05:32:11.478Z,4.14
2018-09-30T05:33:11.482Z,4.02
2018-09-30T05:34:11.471Z,4.05
2018-09-30T05:35:11.445Z,4.11
2018-09-30T05:36:11.475Z,4.08
2018-09-30T05:37:11.443Z,4.08
2018-09-30T05:38:11.413Z,4.02
2018-09-30T05:39:11.401Z,4.04
2018-09-30T05:40:11.402Z,4.00
2018-09-30T05:41:11.380Z,4.12
2018-09-30T05:42:11.372Z,4.14
2018-09-30T05:43:11.357Z,4.09
2018-09-30T05:44:11.361Z,4.04
2018-09-30T05:45:11.335Z,4.18
2018-09-30T05:46:11.323Z,4.06
2018-09-30T05:47:11.327Z,4.20
2018-09-30T05:48:11.307Z,4.20
2018-09-30T05:49:11.359Z,4.11
2018-09-30T05:50:11.281Z,4.11
2018-09-30T05:51:11.305Z,4.14
2018-09-30T05:52:11.261Z,4.12
2018-09-30T05:53:11.247Z,4.12
2018-09-30T05:54:11.236Z,4.18
2018-09-30T05:55:11.228Z,4.08
2018-09-30T05:56:11.215Z,4.08
2018-09-30T05:57:11.217Z,4.08
2018-09-30T05:58:11.193Z,4.12
2018-09-30T05:59:11.183Z,4.11
2018-09-30T06:00:11.207Z,4.14
2018-09-30T06:01:11.160Z,4.12
2018-09-30T06:02:11.150Z,4.14
2018-09-30T06:03:11.140Z,4.14
2018-09-30T06:04:11.128Z,4.22
2018-09-30T06:05:11.117Z,4.23
2018-09-30T06:06:11.119Z,4.23
2018-09-30T06:07:11.109Z,4.24
2018-09-30T06:08:11.085Z,4.29
2018-09-30T06:09:11.120Z,4.20
2018-09-30T06:10:11.069Z,4.30
2018-09-30T06:11:11.070Z,4.22
2018-09-30T06:12:11.041Z,4.26
2018-09-30T06:13:11.031Z,4.27
2018-09-30T06:14:11.132Z,4.32
2018-09-30T06:15:11.013Z,4.34
2018-09-30T06:16:10.999Z,4.32
2018-09-30T06:17:11.003Z,4.30
2018-09-30T06:18:10.976Z,4.34
2018-09-30T06:19:10.980Z,4.44
2018-09-30T06:20:10.955Z,4.44
2018-09-30T06:21:10.944Z,4.45
2018-09-30T06:22:10.933Z,4.45
2018-09-30T06:23:10.922Z,4.51
2018-09-30T06:24:11.064Z,4.51
2018-09-30T06:25:10.900Z,4.58
2018-09-30T06:26:10.891Z,4.55
2018-09-30T06:27:10.879Z,4.51
2018-09-30T06:28:10.868Z,4.51
2018-09-30T06:29:10.857Z,4.58
2018-09-30T06:30:10.871Z,4.65
2018-09-30T06:31:10.841Z,4.65
2018-09-30T06:32:10.891Z,4.72
2018-09-30T06:33:10.818Z,4.70
2018-09-30T06:34:10.803Z,4.65
2018-09-30T06:35:10.792Z,4.82
2018-09-30T06:36:10.796Z,4.80
2018-09-30T06:37:10.811Z,4.84
2018-09-30T06:38:10.760Z,4.86
2018-09-30T06:39:10.772Z,4.88
2018-09-30T06:40:10.759Z,4.86
2018-09-30T06:41:10.727Z,4.94
2018-09-30T06:42:10.721Z,5.02
2018-09-30T06:43:10.705Z,5.10
2018-09-30T06:44:10.694Z,5.00
2018-09-30T06:45:10.819Z,5.21
2018-09-30T06:46:10.690Z,5.30
2018-09-30T06:47:10.663Z,5.35
2018-09-30T06:48:10.651Z,5.38
2018-09-30T06:49:10.640Z,5.39
2018-09-30T06:50:10.642Z,5.49
2018-09-30T06:51:10.618Z,5.56
2018-09-30T06:52:10.608Z,5.65
2018-09-30T06:53:10.596Z,5.79
2018-09-30T06:54:10.584Z,5.79
2018-09-30T06:55:10.595Z,5.85
2018-09-30T06:56:10.564Z,6.03
2018-09-30T06:57:10.553Z,6.09
2018-09-30T06:58:10.542Z,6.18
2018-09-30T06:59:10.534Z,6.36
2018-09-30T07:00:10.519Z,6.55
2018-09-30T07:01:10.521Z,6.67
2018-09-30T07:02:10.498Z,6.88
2018-09-30T07:03:10.486Z,6.99
2018-09-30T07:04:10.474Z,7.16
2018-09-30T07:05:10.464Z,7.28
2018-09-30T07:06:10.468Z,7.45
2018-09-30T07:07:10.442Z,7.60
2018-09-30T07:08:10.431Z,7.68
2018-09-30T07:09:10.435Z,7.69
2018-09-30T07:10:10.410Z,7.83
2018-09-30T07:11:10.402Z,7.95
2018-09-30T07:12:10.401Z,8.05
2018-09-30T07:13:10.376Z,8.18
2018-09-30T07:14:10.365Z,8.30
2018-09-30T07:15:10.355Z,8.28
2018-09-30T07:16:10.357Z,8.38
2018-09-30T07:17:10.337Z,8.52
2018-09-30T07:18:10.352Z,8.55
2018-09-30T07:19:10.311Z,8.73
2018-09-30T07:20:10.299Z,8.91
2018-09-30T07:21:10.290Z,8.94
2018-09-30T07:22:10.324Z,9.05
2018-09-30T07:23:10.270Z,9.23
2018-09-30T07:24:10.270Z,9.20
2018-09-30T07:25:10.244Z,9.36
2018-09-30T07:26:10.233Z,9.38
2018-09-30T07:27:10.225Z,9.48
2018-09-30T07:28:10.214Z,9.61
2018-09-30T07:29:10.224Z,9.79
2018-09-30T07:30:10.192Z,9.81
2018-09-30T07:31:10.179Z,9.81
2018-09-30T07:32:10.168Z,10.01
2018-09-30T07:33:10.171Z,9.94
2018-09-30T07:34:10.157Z,10.08
2018-09-30T07:35:10.135Z,10.08
2018-09-30T07:36:10.125Z,10.26
2018-09-30T07:37:10.114Z,10.40
2018-09-30T07:38:10.114Z,10.38
2018-09-30T07:39:10.090Z,10.53
2018-09-30T07:40:10.094Z,10.67
2018-09-30T07:41:10.099Z,10.71
2018-09-30T07:42:10.059Z,10.68
2018-09-30T07:43:10.047Z,10.73
2018-09-30T07:44:10.034Z,10.73
2018-09-30T07:45:10.039Z,10.73
2018-09-30T07:46:10.016Z,10.88
2018-09-30T07:47:10.019Z,11.03
2018-09-30T07:48:09.992Z,11.09
2018-09-30T07:49:10.014Z,11.24
2018-09-30T07:50:09.971Z,11.28
2018-09-30T07:51:09.960Z,11.37
2018-09-30T07:52:09.948Z,11.67
2018-09-30T07:53:09.937Z,11.70
2018-09-30T07:54:09.925Z,11.82
2018-09-30T07:55:09.927Z,11.98
2018-09-30T07:56:09.904Z,12.01
2018-09-30T07:57:09.913Z,11.99
2018-09-30T07:58:09.882Z,12.13
2018-09-30T07:59:09.870Z,12.04
2018-09-30T08:00:09.860Z,11.78
2018-09-30T08:01:09.852Z,11.79
2018-09-30T08:02:09.838Z,11.78
2018-09-30T08:03:09.840Z,11.95
2018-09-30T08:04:09.826Z,12.14
2018-09-30T08:05:09.819Z,12.46
2018-09-30T08:06:09.793Z,12.53
2018-09-30T08:07:09.785Z,12.59
2018-09-30T08:08:09.772Z,12.71
2018-09-30T08:09:09.775Z,12.79
2018-09-30T08:10:09.751Z,12.95
2018-09-30T08:11:09.752Z,13.25
2018-09-30T08:12:09.742Z,13.45
2018-09-30T08:13:09.716Z,13.62
2018-09-30T08:14:09.705Z,13.57
2018-09-30T08:15:09.709Z,13.62
2018-09-30T08:16:09.683Z,13.62
2018-09-30T08:17:09.688Z,13.77
2018-09-30T08:18:09.661Z,13.91
2018-09-30T08:19:09.651Z,13.96
2018-09-30T08:20:09.680Z,14.09
2018-09-30T08:21:10.454Z,14.03
2018-09-30T08:22:09.617Z,14.18
2018-09-30T08:23:09.608Z,14.28
2018-09-30T08:24:09.632Z,14.46
2018-09-30T08:25:09.585Z,14.55
2018-09-30T08:26:09.604Z,14.60
2018-09-30T08:27:09.563Z,14.70
2018-09-30T08:28:09.554Z,14.62
2018-09-30T08:29:09.556Z,14.73
2018-09-30T08:30:09.530Z,14.80
2018-09-30T08:31:09.519Z,15.03
2018-09-30T08:32:09.531Z,15.16
2018-09-30T08:33:09.498Z,15.29
2018-09-30T08:34:09.486Z,15.50
2018-09-30T08:35:09.475Z,15.59
2018-09-30T08:36:09.464Z,15.57
2018-09-30T08:37:09.452Z,15.56
2018-09-30T08:38:09.456Z,15.56
2018-09-30T08:39:09.434Z,15.69
2018-09-30T08:40:09.494Z,15.68
2018-09-30T08:41:09.409Z,15.69
2018-09-30T08:42:09.401Z,15.72
2018-09-30T08:43:09.402Z,15.83
2018-09-30T08:44:09.409Z,15.84
2018-09-30T08:45:09.365Z,16.00
2018-09-30T08:46:09.355Z,15.96
2018-09-30T08:47:09.390Z,16.23
2018-09-30T08:48:09.352Z,16.30
2018-09-30T08:49:09.340Z,16.48
2018-09-30T08:50:09.312Z,16.57
2018-09-30T08:51:09.299Z,16.78
2018-09-30T08:52:09.289Z,16.89
2018-09-30T08:53:09.278Z,16.93
2018-09-30T08:54:09.278Z,17.01
2018-09-30T08:55:09.256Z,17.12
2018-09-30T08:56:09.319Z,17.16
2018-09-30T08:57:09.234Z,17.18
2018-09-30T08:58:09.224Z,17.16
2018-09-30T08:59:09.227Z,17.30
2018-09-30T09:00:09.202Z,17.25
2018-09-30T09:01:09.192Z,17.33
2018-09-30T09:02:09.181Z,17.37
2018-09-30T09:03:09.198Z,17.48
2018-09-30T09:04:09.173Z,17.31
2018-09-30T09:05:09.164Z,17.34
2018-09-30T09:06:09.155Z,17.21
2018-09-30T09:07:09.129Z,17.19
2018-09-30T09:08:09.119Z,17.23
2018-09-30T09:09:09.109Z,17.31
2018-09-30T09:10:09.111Z,17.25
2018-09-30T09:11:09.088Z,17.14
2018-09-30T09:12:09.080Z,17.19
2018-09-30T09:13:09.082Z,17.15
2018-09-30T09:14:09.055Z,17.22
2018-09-30T09:15:09.069Z,17.12
2018-09-30T09:16:09.037Z,17.37
2018-09-30T09:17:09.024Z,17.54
2018-09-30T09:18:09.014Z,17.72
2018-09-30T09:19:09.003Z,17.82
2018-09-30T09:20:08.993Z,18.08
2018-09-30T09:21:08.996Z,18.20
2018-09-30T09:22:08.984Z,18.25
2018-09-30T09:23:08.962Z,18.21
2018-09-30T09:24:08.954Z,18.29
2018-09-30T09:25:08.940Z,18.44
2018-09-30T09:26:08.944Z,18.44
2018-09-30T09:27:08.921Z,18.58
2018-09-30T09:28:08.968Z,18.80
2018-09-30T09:29:08.899Z,18.87
2018-09-30T09:30:08.887Z,18.80
2018-09-30T09:31:08.890Z,18.88
2018-09-30T09:32:08.889Z,18.92
2018-09-30T09:33:09.027Z,18.78
2018-09-30T09:34:08.842Z,18.63
2018-09-30T09:35:08.913Z,18.36
2018-09-30T09:36:08.821Z,18.33
2018-09-30T09:37:08.811Z,18.30
2018-09-30T09:38:08.815Z,18.29
2018-09-30T09:39:08.789Z,18.39
2018-09-30T09:40:08.779Z,18.41
2018-09-30T09:41:08.772Z,18.48
2018-09-30T09:42:08.755Z,18.52
2018-09-30T09:43:08.760Z,18.44
2018-09-30T09:44:08.733Z,18.47
2018-09-30T09:45:08.724Z,18.55
2018-09-30T09:46:08.709Z,18.80
2018-09-30T09:47:08.811Z,18.87
2018-09-30T09:48:08.700Z,18.95
2018-09-30T09:49:08.676Z,19.14
2018-09-30T09:50:08.665Z,19.18
2018-09-30T09:51:08.654Z,19.33
2018-09-30T09:52:08.644Z,19.39
2018-09-30T09:53:08.648Z,19.58
2018-09-30T09:54:08.625Z,19.74
2018-09-30T09:55:08.620Z,19.77
2018-09-30T09:56:08.599Z,19.80
2018-09-30T09:57:08.589Z,19.77
2018-09-30T09:58:08.599Z,19.66
2018-09-30T09:59:08.649Z,19.62
2018-09-30T10:00:08.557Z,19.68
2018-09-30T10:01:08.546Z,19.76
2018-09-30T10:02:08.533Z,19.80
2018-09-30T10:03:08.521Z,19.81
2018-09-30T10:04:08.524Z,19.80
2018-09-30T10:05:08.506Z,19.71
2018-09-30T10:06:08.490Z,19.74
2018-09-30T10:07:08.476Z,19.62
2018-09-30T10:08:08.510Z,19.68
2018-09-30T10:09:08.476Z,19.66
2018-09-30T10:10:08.446Z,19.61
2018-09-30T10:11:08.436Z,19.63
2018-09-30T10:12:08.424Z,19.69
2018-09-30T10:13:08.436Z,19.66
2018-09-30T10:14:08.406Z,19.73
2018-09-30T10:15:08.405Z,19.56
2018-09-30T10:16:08.386Z,19.46
2018-09-30T10:17:08.371Z,19.47
2018-09-30T10:18:08.360Z,19.51
2018-09-30T10:19:08.349Z,19.56
2018-09-30T10:20:08.355Z,19.43
2018-09-30T10:21:08.328Z,19.47
2018-09-30T10:22:08.334Z,19.37
2018-09-30T10:23:08.309Z,19.56
2018-09-30T10:24:08.298Z,19.50
2018-09-30T10:25:08.301Z,19.39
2018-09-30T10:26:08.275Z,19.58
2018-09-30T10:27:08.264Z,19.33
2018-09-30T10:28:08.253Z,18.90
2018-09-30T10:29:08.243Z,18.26
2018-09-30T10:30:08.250Z,18.08
2018-09-30T10:31:08.234Z,18.23
2018-09-30T10:32:08.225Z,18.39
2018-09-30T10:33:08.200Z,18.51
2018-09-30T10:34:08.203Z,18.57
2018-09-30T10:35:08.177Z,18.76
2018-09-30T10:36:08.168Z,19.02
2018-09-30T10:37:08.185Z,18.99
2018-09-30T10:38:09.019Z,19.02
2018-09-30T10:39:08.262Z,18.95
2018-09-30T10:40:08.125Z,19.02
2018-09-30T10:41:08.114Z,19.13
2018-09-30T10:42:08.106Z,19.26
2018-09-30T10:43:08.125Z,19.43
2018-09-30T10:44:08.088Z,19.48
2018-09-30T10:45:08.089Z,19.74
2018-09-30T10:46:08.061Z,19.65
2018-09-30T10:47:08.053Z,19.26
2018-09-30T10:48:08.040Z,18.66
2018-09-30T10:49:08.042Z,18.14
2018-09-30T10:50:08.020Z,17.89
2018-09-30T10:51:08.014Z,17.95
2018-09-30T10:52:07.997Z,18.17
2018-09-30T10:53:07.986Z,18.47
2018-09-30T10:54:07.990Z,18.44
2018-09-30T10:55:08.032Z,18.45
2018-09-30T10:56:07.955Z,18.44
2018-09-30T10:57:07.943Z,18.51
2018-09-30T10:58:07.932Z,18.70
2018-09-30T10:59:07.923Z,18.55
2018-09-30T11:00:07.934Z,18.72
2018-09-30T11:01:07.900Z,18.92
2018-09-30T11:02:07.892Z,19.13
2018-09-30T11:03:07.901Z,19.25
2018-09-30T11:04:07.868Z,19.25
2018-09-30T11:05:07.858Z,19.37
2018-09-30T11:06:07.862Z,19.48
2018-09-30T11:07:07.839Z,19.62
2018-09-30T11:08:07.825Z,19.68
2018-09-30T11:09:07.815Z,19.83
2018-09-30T11:10:07.826Z,19.73
2018-09-30T11:11:07.810Z,19.66
2018-09-30T11:12:07.783Z,19.66
2018-09-30T11:13:07.773Z,19.63
2018-09-30T11:14:07.761Z,19.68
2018-09-30T11:15:07.751Z,19.77
2018-09-30T11:16:07.817Z,19.73
2018-09-30T11:17:07.729Z,19.54
2018-09-30T11:18:07.719Z,19.36
2018-09-30T11:19:07.708Z,19.37
2018-09-30T11:20:07.697Z,19.48
2018-09-30T11:21:07.701Z,19.62
2018-09-30T11:22:07.691Z,19.84
2018-09-30T11:23:07.666Z,19.91
2018-09-30T11:24:07.654Z,20.03
2018-09-30T11:25:07.647Z,20.05
2018-09-30T11:26:07.654Z,20.03
2018-09-30T11:27:07.623Z,20.02
2018-09-30T11:28:07.612Z,20.05
2018-09-30T11:29:07.602Z,20.08
2018-09-30T11:30:07.590Z,20.03
2018-09-30T11:31:07.582Z,20.02
2018-09-30T11:32:07.582Z,20.03
2018-09-30T11:33:07.579Z,20.02
2018-09-30T11:34:07.546Z,20.10
2018-09-30T11:35:07.537Z,20.05
2018-09-30T11:36:07.528Z,20.06
2018-09-30T11:37:07.517Z,20.03
2018-09-30T11:38:07.506Z,20.18
2018-09-30T11:39:07.533Z,20.33
2018-09-30T11:40:07.484Z,20.42
2018-09-30T11:41:07.473Z,20.57
2018-09-30T11:42:07.462Z,20.57
2018-09-30T11:43:07.451Z,20.43
2018-09-30T11:44:07.441Z,20.57
2018-09-30T11:45:07.446Z,20.54
2018-09-30T11:46:07.420Z,20.36
2018-09-30T11:47:07.409Z,20.38
2018-09-30T11:48:07.398Z,20.41
2018-09-30T11:49:07.388Z,20.51
2018-09-30T11:50:07.391Z,20.50
2018-09-30T11:51:07.366Z,20.50
2018-09-30T11:52:07.356Z,20.55
2018-09-30T11:53:07.349Z,20.64
2018-09-30T11:54:07.336Z,20.50
2018-09-30T11:55:07.339Z,20.17
2018-09-30T11:56:07.314Z,20.02
2018-09-30T11:57:07.303Z,19.87
2018-09-30T11:58:07.294Z,20.01
2018-09-30T11:59:07.299Z,20.10
2018-09-30T12:00:07.272Z,20.13
2018-09-30T12:01:07.264Z,20.35
2018-09-30T12:02:07.265Z,20.50
2018-09-30T12:03:07.252Z,20.51
2018-09-30T12:04:07.227Z,20.39
2018-09-30T12:05:07.219Z,20.31
2018-09-30T12:06:07.222Z,20.29
2018-09-30T12:07:07.196Z,20.33
2018-09-30T12:08:07.185Z,20.54
2018-09-30T12:09:07.177Z,20.62
2018-09-30T12:10:07.163Z,20.76
2018-09-30T12:11:07.167Z,20.74
2018-09-30T12:12:07.182Z,20.84
2018-09-30T12:13:07.132Z,20.88
2018-09-30T12:14:07.121Z,20.98
2018-09-30T12:15:07.110Z,21.01
2018-09-30T12:16:07.100Z,21.16
2018-09-30T12:17:07.089Z,21.07
2018-09-30T12:18:07.099Z,20.74
2018-09-30T12:19:07.067Z,20.59
2018-09-30T12:20:07.056Z,20.31
2018-09-30T12:21:07.045Z,20.28
2018-09-30T12:22:07.035Z,20.26
2018-09-30T12:23:07.024Z,20.32
2018-09-30T12:24:07.028Z,20.31
2018-09-30T12:25:07.003Z,20.24
2018-09-30T12:26:06.992Z,20.10
2018-09-30T12:27:06.996Z,20.13
2018-09-30T12:28:06.989Z,20.13
2018-09-30T12:29:06.962Z,20.13
2018-09-30T12:30:06.949Z,20.24
2018-09-30T12:31:06.939Z,20.16
2018-09-30T12:32:06.929Z,20.16
2018-09-30T12:33:06.918Z,19.98
2018-09-30T12:34:06.922Z,19.73
2018-09-30T12:35:06.895Z,19.47
2018-09-30T12:36:06.885Z,19.26
2018-09-30T12:37:06.875Z,19.37
2018-09-30T12:38:06.863Z,19.55
2018-09-30T12:39:07.030Z,19.84
2018-09-30T12:40:06.842Z,20.03
2018-09-30T12:41:06.831Z,20.33
2018-09-30T12:42:06.821Z,20.54
2018-09-30T12:43:06.811Z,20.69
2018-09-30T12:44:06.800Z,20.73
2018-09-30T12:45:06.827Z,20.87
2018-09-30T12:46:06.778Z,20.85
2018-09-30T12:47:06.770Z,20.87
2018-09-30T12:48:06.758Z,20.88
2018-09-30T12:49:06.748Z,20.95
2018-09-30T12:50:06.755Z,20.97
2018-09-30T12:51:06.726Z,21.03
2018-09-30T12:52:06.716Z,21.04
2018-09-30T12:53:06.704Z,20.72
2018-09-30T12:54:06.693Z,20.50
2018-09-30T12:55:06.683Z,20.20
2018-09-30T12:56:06.691Z,20.17
2018-09-30T12:57:06.662Z,19.98
2018-09-30T12:58:06.726Z,20.08
2018-09-30T12:59:06.639Z,20.14
2018-09-30T13:00:06.629Z,20.08
2018-09-30T13:01:06.619Z,19.96
2018-09-30T13:02:06.622Z,20.06
2018-09-30T13:03:06.597Z,20.11
2018-09-30T13:04:06.590Z,20.29
2018-09-30T13:05:06.576Z,20.41
2018-09-30T13:06:06.586Z,20.48
2018-09-30T13:07:06.554Z,20.52